Terminal Aerodrome Forecast
Issued by NWS

Home | Current Version | Previous Version | Text Only | Print | Product List | Glossary On
Versions: 1 2 3 4 5 6 7 8 9 10 11 12 13 14 15 16 17 18 19 20 21 22 23 24 25 26
155
FTUS46 KMTR 251736
TAFSFO
TAF
KSFO 251736Z 2518/2624 18014G20KT P6SM BKN022
     FM251845 22012G18KT P6SM SCT022
     FM260500 24008KT P6SM BKN018
     FM261000 20004KT P6SM OVC014
     FM261630 20006KT P6SM BKN020
     FM261900 22012G18KT P6SM SCT022=

USA.gov is the U.S. government's official web portal to all federal, state and local government web resources and services.